createdAt,value
2022-10-07T00:03:04.459Z,100.00
2022-10-07T00:07:06.068Z,100.00
2022-10-07T00:11:13.534Z,100.00
2022-10-07T00:15:15.444Z,100.00
2022-10-07T00:19:17.026Z,100.00
2022-10-07T00:23:18.597Z,100.00
2022-10-07T00:27:20.191Z,100.00
2022-10-07T00:31:24.540Z,100.00
2022-10-07T00:35:26.095Z,100.00
2022-10-07T00:39:27.716Z,100.00
2022-10-07T00:43:31.869Z,100.00
2022-10-07T00:47:36.728Z,100.00
2022-10-07T00:51:39.404Z,100.00
2022-10-07T00:55:42.943Z,100.00
2022-10-07T00:59:44.979Z,100.00
2022-10-07T01:03:49.456Z,100.00
2022-10-07T01:07:55.917Z,100.00
2022-10-07T01:12:17.193Z,100.00
2022-10-07T01:16:37.883Z,100.00
2022-10-07T01:21:00.504Z,100.00
2022-10-07T01:25:23.340Z,100.00
2022-10-07T01:29:35.626Z,100.00
2022-10-07T01:33:40.414Z,100.00
2022-10-07T01:37:47.206Z,100.00
2022-10-07T01:41:50.573Z,100.00
2022-10-07T01:45:54.839Z,100.00
2022-10-07T01:49:56.451Z,100.00
2022-10-07T01:54:15.876Z,100.00
2022-10-07T01:58:53.323Z,100.00
2022-10-07T02:03:17.758Z,100.00
2022-10-07T02:07:53.648Z,100.00
2022-10-07T02:12:04.939Z,100.00
2022-10-07T02:16:23.376Z,100.00
2022-10-07T02:20:31.956Z,100.00
2022-10-07T02:24:35.905Z,100.00
2022-10-07T02:28:43.583Z,100.00
2022-10-07T02:32:58.599Z,100.00
2022-10-07T02:37:08.279Z,100.00
2022-10-07T02:41:31.336Z,100.00
2022-10-07T02:45:51.636Z,100.00
2022-10-07T02:49:53.843Z,100.00
2022-10-07T02:53:57.704Z,100.00
2022-10-07T02:58:03.743Z,100.00
2022-10-07T03:02:11.054Z,100.00
2022-10-07T03:06:13.864Z,100.00
2022-10-07T03:10:16.184Z,100.00
2022-10-07T03:14:18.954Z,100.00
2022-10-07T03:18:27.291Z,100.00
2022-10-07T03:22:47.139Z,100.00
2022-10-07T03:26:51.748Z,100.00
2022-10-07T03:30:54.677Z,100.00
2022-10-07T03:34:56.414Z,100.00
2022-10-07T03:38:58.477Z,100.00
2022-10-07T03:43:00.471Z,100.00
2022-10-07T03:47:06.664Z,100.00
2022-10-07T03:51:11.494Z,100.00
2022-10-07T03:55:14.852Z,100.00
2022-10-07T03:59:16.939Z,100.00
2022-10-07T04:03:20.266Z,100.00
2022-10-07T04:07:23.720Z,100.00
2022-10-07T04:11:26.338Z,100.00
2022-10-07T04:15:30.576Z,100.00
2022-10-07T04:19:32.386Z,100.00
2022-10-07T04:23:36.891Z,100.00
2022-10-07T04:27:51.635Z,100.00
2022-10-07T04:31:58.133Z,100.00
2022-10-07T04:36:04.744Z,100.00
2022-10-07T04:40:07.597Z,100.00
2022-10-07T04:44:10.662Z,100.00
2022-10-07T04:48:21.931Z,100.00
2022-10-07T04:52:26.625Z,100.00
2022-10-07T04:56:31.134Z,100.00
2022-10-07T05:00:33.313Z,100.00
2022-10-07T05:04:34.837Z,100.00
2022-10-07T05:08:37.574Z,100.00
2022-10-07T05:12:41.523Z,100.00
2022-10-07T05:16:44.404Z,100.00
2022-10-07T05:20:48.753Z,100.00
2022-10-07T05:24:51.284Z,100.00
2022-10-07T05:28:53.764Z,100.00
2022-10-07T05:33:01.493Z,100.00
2022-10-07T05:37:03.014Z,100.00
2022-10-07T05:41:07.079Z,100.00
2022-10-07T05:45:11.497Z,100.00
2022-10-07T05:49:13.781Z,100.00
2022-10-07T05:53:16.081Z,100.00
2022-10-07T05:57:17.836Z,100.00
2022-10-07T06:01:21.887Z,100.00
2022-10-07T06:05:24.956Z,100.00
2022-10-07T06:09:45.256Z,100.00
2022-10-07T06:13:54.095Z,100.00
2022-10-07T06:17:55.664Z,100.00
2022-10-07T06:21:57.730Z,100.00
2022-10-07T06:26:08.439Z,100.00
2022-10-07T06:30:10.517Z,100.00
2022-10-07T06:34:12.009Z,100.00
2022-10-07T06:38:13.858Z,100.00
2022-10-07T06:42:15.361Z,100.00
2022-10-07T06:46:51.878Z,100.00
2022-10-07T06:50:58.442Z,100.00
2022-10-07T06:55:02.289Z,100.00
2022-10-07T06:59:06.928Z,100.00
2022-10-07T07:03:20.331Z,100.00
2022-10-07T07:07:24.446Z,100.00
2022-10-07T07:11:41.712Z,100.00
2022-10-07T07:15:59.181Z,100.00
2022-10-07T07:20:03.820Z,100.00
2022-10-07T07:24:06.375Z,100.00
2022-10-07T07:28:08.941Z,100.00
2022-10-07T07:32:10.572Z,100.00
2022-10-07T07:36:16.364Z,100.00
2022-10-07T07:40:21.989Z,100.00
2022-10-07T07:44:24.943Z,100.00
2022-10-07T07:48:30.891Z,100.00
2022-10-07T07:52:33.614Z,100.00
2022-10-07T07:56:37.268Z,100.00
2022-10-07T08:00:38.804Z,100.00
2022-10-07T08:04:41.223Z,100.00
2022-10-07T08:08:43.802Z,100.00
2022-10-07T08:12:46.475Z,100.00
2022-10-07T08:16:50.037Z,100.00
2022-10-07T08:21:02.809Z,98.05
2022-10-07T08:25:06.055Z,99.55
2022-10-07T08:29:09.706Z,100.00
2022-10-07T08:33:12.057Z,97.18
2022-10-07T08:37:13.469Z,96.94
2022-10-07T08:41:36.449Z,94.71
2022-10-07T08:45:37.863Z,90.68
2022-10-07T08:49:49.669Z,91.55
2022-10-07T08:53:54.752Z,88.55
2022-10-07T08:58:23.059Z,90.57
2022-10-07T09:02:34.970Z,91.81
2022-10-07T09:06:52.513Z,89.47
2022-10-07T09:11:00.882Z,88.73
2022-10-07T09:15:06.181Z,87.19
2022-10-07T09:19:17.491Z,85.78
2022-10-07T09:23:28.946Z,84.30
2022-10-07T09:27:30.359Z,85.36
2022-10-07T09:31:32.608Z,85.92
2022-10-07T09:35:34.194Z,81.03
2022-10-07T09:39:35.601Z,84.49
2022-10-07T09:43:43.024Z,79.80
2022-10-07T09:47:44.847Z,78.58
2022-10-07T09:52:02.138Z,78.60
2022-10-07T09:56:03.614Z,78.34
2022-10-07T10:00:24.283Z,75.63
2022-10-07T10:04:36.332Z,73.60
2022-10-07T10:08:40.948Z,76.33
2022-10-07T10:12:47.119Z,76.00
2022-10-07T10:16:48.788Z,76.62
2022-10-07T10:20:50.312Z,73.00
2022-10-07T10:25:11.096Z,73.96
2022-10-07T10:29:23.096Z,74.20
2022-10-07T10:33:33.588Z,73.21
2022-10-07T10:37:40.930Z,73.63
2022-10-07T10:42:05.374Z,73.26
2022-10-07T10:46:37.337Z,72.44
2022-10-07T10:50:56.863Z,69.51
2022-10-07T10:55:07.058Z,71.06
2022-10-07T10:59:27.245Z,70.56
2022-10-07T11:03:32.664Z,68.29
2022-10-07T11:07:39.273Z,70.41
2022-10-07T11:11:42.461Z,69.11
2022-10-07T11:15:49.439Z,70.67
2022-10-07T11:20:20.330Z,70.16
2022-10-07T11:24:44.681Z,69.31
2022-10-07T11:28:46.841Z,70.83
2022-10-07T11:32:57.467Z,70.79
2022-10-07T11:37:08.199Z,69.61
2022-10-07T11:41:14.314Z,69.96
2022-10-07T11:45:24.582Z,69.77
2022-10-07T11:49:37.588Z,66.72
2022-10-07T11:53:39.946Z,64.71
2022-10-07T11:57:43.948Z,67.10
2022-10-07T12:01:52.616Z,66.40
2022-10-07T12:05:57.640Z,66.33
2022-10-07T12:09:59.038Z,65.26
2022-10-07T12:14:30.298Z,64.78
2022-10-07T12:18:31.741Z,65.25
2022-10-07T12:22:40.480Z,64.78
2022-10-07T12:26:45.914Z,61.91
2022-10-07T12:31:02.064Z,61.90
2022-10-07T12:35:34.812Z,64.30
2022-10-07T12:39:36.982Z,63.47
2022-10-07T12:43:48.047Z,63.99
2022-10-07T12:47:54.904Z,66.44
2022-10-07T12:52:00.024Z,61.63
2022-10-07T12:56:01.845Z,63.48
2022-10-07T13:00:12.188Z,61.55
2022-10-07T13:05:10.799Z,59.86
2022-10-07T13:09:41.132Z,61.43
2022-10-07T13:13:59.000Z,61.06
2022-10-07T13:18:16.803Z,60.89
2022-10-07T13:22:19.365Z,58.36
2022-10-07T13:26:22.623Z,57.77
2022-10-07T13:30:34.768Z,57.82
2022-10-07T13:34:36.586Z,58.76
2022-10-07T13:38:37.984Z,62.51
2022-10-07T13:42:39.428Z,62.32
2022-10-07T13:46:54.237Z,61.49
2022-10-07T13:50:58.539Z,61.75
2022-10-07T13:55:00.169Z,61.40
2022-10-07T13:59:03.766Z,61.75
2022-10-07T14:03:13.688Z,62.68
2022-10-07T14:07:19.980Z,61.77
2022-10-07T14:11:22.547Z,63.54
2022-10-07T14:15:27.044Z,62.67
2022-10-07T14:19:32.789Z,61.53
2022-10-07T14:23:36.349Z,61.02
2022-10-07T14:27:52.504Z,62.66
2022-10-07T14:32:39.617Z,62.04
2022-10-07T14:37:19.352Z,62.08
2022-10-07T14:41:23.486Z,63.00
2022-10-07T14:45:25.013Z,65.99
2022-10-07T14:49:28.237Z,67.54
2022-10-07T14:53:29.946Z,68.20
2022-10-07T14:57:31.453Z,71.17
2022-10-07T15:01:32.946Z,67.92
2022-10-07T15:05:34.496Z,68.21
2022-10-07T15:09:36.014Z,69.38
2022-10-07T15:13:37.462Z,69.16
2022-10-07T15:17:40.200Z,70.91
2022-10-07T15:21:41.615Z,72.72
2022-10-07T15:25:43.804Z,71.29
2022-10-07T15:29:45.796Z,73.98
2022-10-07T15:33:47.637Z,73.17
2022-10-07T15:37:49.393Z,73.42
2022-10-07T15:41:50.840Z,73.60
2022-10-07T15:45:52.799Z,76.10
2022-10-07T15:49:54.235Z,76.78
2022-10-07T15:53:55.674Z,77.42
2022-10-07T15:57:57.128Z,77.62
2022-10-07T16:01:58.747Z,79.76
2022-10-07T16:06:02.507Z,80.65
2022-10-07T16:10:04.444Z,82.02
2022-10-07T16:14:05.896Z,84.23
2022-10-07T16:18:07.524Z,84.27
2022-10-07T16:22:09.504Z,85.35
2022-10-07T16:26:19.453Z,87.81
2022-10-07T16:30:39.521Z,87.51
2022-10-07T16:34:43.360Z,89.62
2022-10-07T16:38:45.741Z,90.42
2022-10-07T16:42:48.041Z,92.75
2022-10-07T16:46:49.576Z,93.20
2022-10-07T16:50:51.038Z,92.75
2022-10-07T16:54:52.482Z,94.58
2022-10-07T16:58:59.128Z,94.55
2022-10-07T17:03:00.520Z,96.22
2022-10-07T17:07:02.700Z,96.26
2022-10-07T17:11:04.117Z,96.74
2022-10-07T17:15:05.760Z,96.67
2022-10-07T17:19:07.276Z,99.15
2022-10-07T17:23:08.884Z,99.18
2022-10-07T17:27:11.230Z,97.76
2022-10-07T17:31:13.722Z,97.67
2022-10-07T17:35:15.375Z,100.00
2022-10-07T17:39:18.890Z,100.00
2022-10-07T17:43:20.311Z,100.00
2022-10-07T17:47:21.728Z,100.00
2022-10-07T17:51:27.761Z,100.00
2022-10-07T17:55:29.169Z,100.00
2022-10-07T17:59:30.681Z,100.00
2022-10-07T18:03:32.166Z,100.00
2022-10-07T18:07:33.608Z,100.00
2022-10-07T18:11:53.930Z,100.00
2022-10-07T18:15:59.887Z,100.00
2022-10-07T18:20:01.605Z,100.00
2022-10-07T18:24:07.216Z,100.00
2022-10-07T18:28:08.705Z,100.00
2022-10-07T18:32:10.327Z,100.00
2022-10-07T18:36:18.192Z,100.00
2022-10-07T18:40:19.632Z,100.00
2022-10-07T18:44:21.395Z,100.00
2022-10-07T18:48:22.784Z,100.00
2022-10-07T18:52:24.760Z,100.00
2022-10-07T18:56:26.226Z,100.00
2022-10-07T19:00:27.698Z,100.00
2022-10-07T19:04:30.555Z,100.00
2022-10-07T19:08:32.195Z,100.00
2022-10-07T19:12:52.290Z,100.00
2022-10-07T19:16:54.203Z,100.00
2022-10-07T19:20:59.856Z,100.00
2022-10-07T19:25:19.973Z,100.00
2022-10-07T19:29:21.336Z,100.00
2022-10-07T19:33:23.965Z,100.00
2022-10-07T19:37:25.778Z,100.00
2022-10-07T19:41:30.074Z,100.00
2022-10-07T19:45:34.084Z,100.00
2022-10-07T19:49:38.382Z,100.00
2022-10-07T19:53:46.654Z,100.00
2022-10-07T19:57:49.853Z,100.00
2022-10-07T20:01:51.809Z,100.00
2022-10-07T20:05:53.723Z,100.00
2022-10-07T20:09:55.123Z,100.00
2022-10-07T20:13:56.617Z,100.00
2022-10-07T20:17:58.051Z,100.00
2022-10-07T20:22:01.123Z,100.00
2022-10-07T20:26:11.452Z,100.00
2022-10-07T20:30:17.887Z,100.00
2022-10-07T20:34:20.083Z,100.00
2022-10-07T20:38:21.496Z,100.00
2022-10-07T20:42:25.339Z,100.00
2022-10-07T20:46:27.044Z,100.00
2022-10-07T20:50:28.483Z,100.00
2022-10-07T20:54:31.064Z,100.00
2022-10-07T20:58:32.878Z,100.00
2022-10-07T21:02:34.287Z,100.00
2022-10-07T21:06:36.069Z,100.00
2022-10-07T21:10:37.465Z,100.00
2022-10-07T21:14:39.358Z,100.00
2022-10-07T21:18:40.746Z,100.00
2022-10-07T21:22:42.241Z,100.00
2022-10-07T21:26:43.843Z,100.00
2022-10-07T21:30:54.774Z,100.00
2022-10-07T21:34:57.297Z,100.00
2022-10-07T21:38:59.176Z,100.00
2022-10-07T21:43:00.665Z,100.00
2022-10-07T21:47:02.226Z,100.00
2022-10-07T21:51:09.323Z,100.00
2022-10-07T21:55:11.235Z,100.00
2022-10-07T21:59:13.541Z,100.00
2022-10-07T22:03:16.516Z,100.00
2022-10-07T22:07:36.698Z,100.00
2022-10-07T22:11:38.528Z,100.00
2022-10-07T22:15:39.968Z,100.00
2022-10-07T22:19:41.456Z,100.00
2022-10-07T22:23:43.385Z,100.00
2022-10-07T22:27:44.823Z,100.00
2022-10-07T22:31:47.025Z,100.00
2022-10-07T22:35:48.461Z,100.00
2022-10-07T22:39:49.905Z,100.00
2022-10-07T22:43:52.795Z,100.00
2022-10-07T22:47:54.247Z,100.00
2022-10-07T22:51:55.684Z,100.00
2022-10-07T22:56:06.185Z,100.00
2022-10-07T23:00:08.202Z,100.00
2022-10-07T23:04:09.665Z,100.00
2022-10-07T23:08:11.186Z,100.00
2022-10-07T23:12:12.629Z,100.00
2022-10-07T23:16:16.765Z,100.00
2022-10-07T23:20:19.092Z,100.00
2022-10-07T23:24:20.600Z,100.00
2022-10-07T23:28:24.364Z,100.00
2022-10-07T23:32:25.832Z,100.00
2022-10-07T23:36:27.921Z,100.00
2022-10-07T23:40:29.433Z,100.00
2022-10-07T23:44:30.864Z,100.00
2022-10-07T23:48:34.510Z,100.00
2022-10-07T23:52:35.920Z,100.00
2022-10-07T23:56:37.315Z,100.00
